Угольный

Карта отелей и гостиниц, располагающихся рядом с аэропортом Угольный :

Угольный
Анадырь
Чукотский автономный округ 64° 44' 5.82" N, 177° 44' 29.58" E
Код аэродрома ИКАО: 
UHMA
Код аэродрома RU: 
УХМА
Координаты: 
N64.73495° E177.74155°
Превышение над уровнем моря : 
59
Основная полоса: 
01/19
Курс магнитный: 
012,2/192,2
Длина основной ВПП: 
3500
Ширина основной ВПП: 
60
Покрытие основной ВПП: 
Твёрдое
Тип: 
Аэродром
Освещение ВПП: 
Постоянное
Класс аэродрома: 
Международный
Статус: 
Действующий
Принадлежность: 
ГА
Страна: 
Россия
Регион: 
Чукотский автономный округ
Город: 
Анадырь
Дополнительная информация: 
Военный индекс: ЬХМА/XHMA. Оператор: нет данных.
Схемы аэропортов: 
Погода: 

Авиационная погода в Угольном

Регион: 
Погода METAR: 
UHMA 151200Z 00000MPS 9999 VCFG FEW010 SCT021 08/08 Q1005 R01/////// NOSIG RMK TDZ R01/00000G01MPS END R01/12002G03MPS QFE750/1000
Время наблюдения: 
2020-07-15T12:00:00Z
Температура C: 
8.0
Точка росы: 
8.0
Направление ветра: 
0
Скорость ветра: 
0
Метеорологическая видимость: 
6.21
Явления погоды: 
VCFG
Условия полета: 
VFR
Аэропорт подробнее: 

Найти трансфер

С помощью этой формы Вы можете найти трансфер из аэропорта Угольный в город, аэропорт или вокзал:

Карта места

Javascript is required to view this map.

Погода в аэропортах:

Авиационная погода в Витебске

Регион: 
Погода METAR: 
UMII 151130Z 32006G09MPS 9000 -SHRA BKN031CB 14/11 Q1008 R23/290068 TEMPO 2000 SHRA BKN005
Время наблюдения: 
2020-07-15T11:30:00Z
Температура C: 
14.0
Точка росы: 
11.0
Направление ветра: 
320
Скорость ветра: 
12
Метеорологическая видимость: 
5.59
Явления погоды: 
-SHRA
Условия полета: 
VFR

Авиационная погода в Угольном

Регион: 
Погода METAR: 
UHMA 151200Z 00000MPS 9999 VCFG FEW010 SCT021 08/08 Q1005 R01/////// NOSIG RMK TDZ R01/00000G01MPS END R01/12002G03MPS QFE750/1000
Время наблюдения: 
2020-07-15T12:00:00Z
Температура C: 
8.0
Точка росы: 
8.0
Направление ветра: 
0
Скорость ветра: 
0
Метеорологическая видимость: 
6.21
Явления погоды: 
VCFG
Условия полета: 
VFR
Аэропорт подробнее: 

Авиационная погода в Череповце

Регион: 
Погода METAR: 
ULWC 151130Z 03005G10MPS 7000 -SHRA BKN008 BKN014CB OVC066 14/14 Q1006 R03/090357 NOSIG RMK QFE745/0993
Время наблюдения: 
2020-07-15T11:30:00Z
Температура C: 
14.0
Точка росы: 
14.0
Направление ветра: 
30
Скорость ветра: 
10
Метеорологическая видимость: 
4.35
Явления погоды: 
-SHRA
Условия полета: 
IFR
Аэропорт подробнее: 

Авиационная погода в Могилёве

Регион: 
Погода METAR: 
UMOO 151130Z 30008G11MPS 8000 -SHRA BKN035CB OVC/// 15/09 Q1010 R31/CLRD// NOSIG
Время наблюдения: 
2020-07-15T11:30:00Z
Температура C: 
15.0
Точка росы: 
9.0
Направление ветра: 
300
Скорость ветра: 
16
Метеорологическая видимость: 
4.97
Явления погоды: 
-SHRA
Условия полета: 
MVFR
Аэропорт подробнее: